sensor_id;sensor_type;location;lat;lon;timestamp;P1;durP1;ratioP1;P2;durP2;ratioP2
39340;SDS011;25059;52.132;21.062;2023-09-08T05:36:32;0.20;;;0.20;;
39340;SDS011;25059;52.132;21.062;2023-09-08T05:42:04;0.20;;;0.20;;
39340;SDS011;25059;52.132;21.062;2023-09-08T05:44:49;0.20;;;0.20;;
39340;SDS011;25059;52.132;21.062;2023-09-08T05:47:34;0.20;;;0.20;;
39340;SDS011;25059;52.132;21.062;2023-09-08T05:50:19;0.20;;;0.20;;
39340;SDS011;25059;52.132;21.062;2023-09-08T05:53:04;0.20;;;0.20;;
39340;SDS011;25059;52.132;21.062;2023-09-08T05:55:48;0.20;;;0.20;;
39340;SDS011;25059;52.132;21.062;2023-09-08T05:58:33;0.20;;;0.20;;
39340;SDS011;25059;52.132;21.062;2023-09-08T06:01:18;0.20;;;0.20;;
39340;SDS011;25059;52.132;21.062;2023-09-08T06:04:06;0.13;;;0.13;;
39340;SDS011;25059;52.132;21.062;2023-09-08T06:06:50;0.15;;;0.15;;
39340;SDS011;25059;52.132;21.062;2023-09-08T06:09:35;0.10;;;0.10;;
39340;SDS011;25059;52.132;21.062;2023-09-08T06:12:19;0.20;;;0.20;;
39340;SDS011;25059;52.132;21.062;2023-09-08T06:15:04;0.20;;;0.20;;
39340;SDS011;25059;52.132;21.062;2023-09-08T06:17:50;0.10;;;0.10;;
39340;SDS011;25059;52.132;21.062;2023-09-08T06:20:35;0.10;;;0.10;;
39340;SDS011;25059;52.132;21.062;2023-09-08T06:23:19;0.20;;;0.20;;
39340;SDS011;25059;52.132;21.062;2023-09-08T06:26:06;0.17;;;0.17;;
39340;SDS011;25059;52.132;21.062;2023-09-08T06:28:51;0.10;;;0.10;;
39340;SDS011;25059;52.132;21.062;2023-09-08T06:31:36;0.20;;;0.20;;
39340;SDS011;25059;52.132;21.062;2023-09-08T06:34:20;0.10;;;0.10;;
39340;SDS011;25059;52.132;21.062;2023-09-08T06:37:07;0.15;;;0.15;;
39340;SDS011;25059;52.132;21.062;2023-09-08T06:39:54;0.10;;;0.10;;
39340;SDS011;25059;52.132;21.062;2023-09-08T06:42:39;0.20;;;0.20;;
39340;SDS011;25059;52.132;21.062;2023-09-08T06:45:24;0.20;;;0.20;;
39340;SDS011;25059;52.132;21.062;2023-09-08T06:48:09;0.13;;;0.13;;
39340;SDS011;25059;52.132;21.062;2023-09-08T06:50:54;0.20;;;0.20;;
39340;SDS011;25059;52.132;21.062;2023-09-08T06:53:42;0.20;;;0.20;;
39340;SDS011;25059;52.132;21.062;2023-09-08T06:56:27;0.10;;;0.10;;
39340;SDS011;25059;52.132;21.062;2023-09-08T06:59:12;0.20;;;0.20;;
39340;SDS011;25059;52.132;21.062;2023-09-08T07:01:57;0.10;;;0.10;;
39340;SDS011;25059;52.132;21.062;2023-09-08T07:04:42;0.10;;;0.10;;
39340;SDS011;25059;52.132;21.062;2023-09-08T07:07:27;0.10;;;0.10;;
39340;SDS011;25059;52.132;21.062;2023-09-08T07:10:12;0.10;;;0.10;;
39340;SDS011;25059;52.132;21.062;2023-09-08T07:12:56;0.20;;;0.20;;
39340;SDS011;25059;52.132;21.062;2023-09-08T07:15:41;0.20;;;0.20;;
39340;SDS011;25059;52.132;21.062;2023-09-08T07:18:26;0.10;;;0.10;;
39340;SDS011;25059;52.132;21.062;2023-09-08T07:21:11;0.10;;;0.10;;
39340;SDS011;25059;52.132;21.062;2023-09-08T07:23:56;0.17;;;0.17;;
39340;SDS011;25059;52.132;21.062;2023-09-08T07:26:41;0.15;;;0.15;;
39340;SDS011;25059;52.132;21.062;2023-09-08T07:29:26;0.20;;;0.20;;
39340;SDS011;25059;52.132;21.062;2023-09-08T07:32:11;0.10;;;0.10;;
39340;SDS011;25059;52.132;21.062;2023-09-08T07:34:55;0.10;;;0.10;;
39340;SDS011;25059;52.132;21.062;2023-09-08T07:37:40;0.10;;;0.10;;
39340;SDS011;25059;52.132;21.062;2023-09-08T07:40:25;0.10;;;0.10;;
39340;SDS011;25059;52.132;21.062;2023-09-08T07:43:10;0.15;;;0.15;;
39340;SDS011;25059;52.132;21.062;2023-09-08T07:49:23;0.10;;;0.10;;
39340;SDS011;25059;52.132;21.062;2023-09-08T07:52:08;0.10;;;0.10;;
39340;SDS011;25059;52.132;21.062;2023-09-08T07:54:53;0.10;;;0.10;;
39340;SDS011;25059;52.132;21.062;2023-09-08T07:57:37;0.10;;;0.10;;
39340;SDS011;25059;52.132;21.062;2023-09-08T08:00:23;0.20;;;0.20;;
39340;SDS011;25059;52.132;21.062;2023-09-08T08:03:07;0.10;;;0.10;;
39340;SDS011;25059;52.132;21.062;2023-09-08T08:05:57;0.10;;;0.10;;
39340;SDS011;25059;52.132;21.062;2023-09-08T08:08:44;0.13;;;0.13;;
39340;SDS011;25059;52.132;21.062;2023-09-08T08:11:28;0.20;;;0.20;;
39340;SDS011;25059;52.132;21.062;2023-09-08T08:14:13;0.10;;;0.10;;
39340;SDS011;25059;52.132;21.062;2023-09-08T08:16:58;0.20;;;0.20;;
39340;SDS011;25059;52.132;21.062;2023-09-08T08:19:43;0.20;;;0.20;;
39340;SDS011;25059;52.132;21.062;2023-09-08T08:22:28;0.10;;;0.10;;
39340;SDS011;25059;52.132;21.062;2023-09-08T08:25:12;0.20;;;0.20;;
39340;SDS011;25059;52.132;21.062;2023-09-08T08:27:57;0.20;;;0.20;;
39340;SDS011;25059;52.132;21.062;2023-09-08T08:30:43;0.20;;;0.20;;
39340;SDS011;25059;52.132;21.062;2023-09-08T08:33:28;0.20;;;0.20;;
39340;SDS011;25059;52.132;21.062;2023-09-08T08:36:13;0.10;;;0.10;;
39340;SDS011;25059;52.132;21.062;2023-09-08T08:38:58;0.10;;;0.10;;
39340;SDS011;25059;52.132;21.062;2023-09-08T08:41:43;0.20;;;0.20;;
39340;SDS011;25059;52.132;21.062;2023-09-08T08:44:28;0.20;;;0.20;;
39340;SDS011;25059;52.132;21.062;2023-09-08T08:47:12;0.10;;;0.10;;
39340;SDS011;25059;52.132;21.062;2023-09-08T08:49:59;0.15;;;0.15;;
39340;SDS011;25059;52.132;21.062;2023-09-08T08:52:44;0.10;;;0.10;;
39340;SDS011;25059;52.132;21.062;2023-09-08T08:55:30;0.20;;;0.20;;
39340;SDS011;25059;52.132;21.062;2023-09-08T08:58:15;0.10;;;0.10;;
39340;SDS011;25059;52.132;21.062;2023-09-08T09:01:00;0.10;;;0.10;;
39340;SDS011;25059;52.132;21.062;2023-09-08T09:03:46;0.10;;;0.10;;
39340;SDS011;25059;52.132;21.062;2023-09-08T09:06:33;0.10;;;0.10;;
39340;SDS011;25059;52.132;21.062;2023-09-08T09:09:18;0.10;;;0.10;;
39340;SDS011;25059;52.132;21.062;2023-09-08T09:12:06;0.10;;;0.10;;
39340;SDS011;25059;52.132;21.062;2023-09-08T09:14:52;0.10;;;0.10;;
39340;SDS011;25059;52.132;21.062;2023-09-08T09:17:37;0.10;;;0.10;;
39340;SDS011;25059;52.132;21.062;2023-09-08T09:20:22;0.10;;;0.10;;
39340;SDS011;25059;52.132;21.062;2023-09-08T09:23:07;0.10;;;0.10;;
39340;SDS011;25059;52.132;21.062;2023-09-08T09:25:54;0.10;;;0.10;;
39340;SDS011;25059;52.132;21.062;2023-09-08T09:28:46;0.10;;;0.10;;
39340;SDS011;25059;52.132;21.062;2023-09-08T09:31:33;0.10;;;0.10;;
39340;SDS011;25059;52.132;21.062;2023-09-08T09:34:18;0.13;;;0.13;;
39340;SDS011;25059;52.132;21.062;2023-09-08T09:37:02;0.10;;;0.10;;
39340;SDS011;25059;52.132;21.062;2023-09-08T09:39:51;0.10;;;0.10;;
39340;SDS011;25059;52.132;21.062;2023-09-08T09:42:39;0.10;;;0.10;;
39340;SDS011;25059;52.132;21.062;2023-09-08T09:45:27;0.10;;;0.10;;
39340;SDS011;25059;52.132;21.062;2023-09-08T09:48:12;0.10;;;0.10;;
39340;SDS011;25059;52.132;21.062;2023-09-08T09:50:57;0.10;;;0.10;;
39340;SDS011;25059;52.132;21.062;2023-09-08T09:53:42;0.10;;;0.10;;
39340;SDS011;25059;52.132;21.062;2023-09-08T09:56:27;0.20;;;0.20;;
39340;SDS011;25059;52.132;21.062;2023-09-08T09:59:12;0.10;;;0.10;;
39340;SDS011;25059;52.132;21.062;2023-09-08T10:01:58;0.10;;;0.10;;
39340;SDS011;25059;52.132;21.062;2023-09-08T10:04:43;0.10;;;0.10;;
39340;SDS011;25059;52.132;21.062;2023-09-08T10:07:29;0.00;;;0.00;;
39340;SDS011;25059;52.132;21.062;2023-09-08T10:10:13;0.10;;;0.10;;
39340;SDS011;25059;52.132;21.062;2023-09-08T10:13:02;0.20;;;0.20;;
39340;SDS011;25059;52.132;21.062;2023-09-08T10:15:50;0.22;;;0.22;;
39340;SDS011;25059;52.132;21.062;2023-09-08T10:18:36;0.35;;;0.35;;
39340;SDS011;25059;52.132;21.062;2023-09-08T10:21:23;0.20;;;0.20;;
39340;SDS011;25059;52.132;21.062;2023-09-08T10:24:14;0.32;;;0.32;;
39340;SDS011;25059;52.132;21.062;2023-09-08T10:27:02;0.57;;;0.57;;
39340;SDS011;25059;52.132;21.062;2023-09-08T10:29:52;0.60;;;0.60;;
39340;SDS011;25059;52.132;21.062;2023-09-08T10:32:38;0.73;;;0.73;;
39340;SDS011;25059;52.132;21.062;2023-09-08T10:35:26;0.70;;;0.70;;
39340;SDS011;25059;52.132;21.062;2023-09-08T10:44:10;0.70;;;0.70;;
39340;SDS011;25059;52.132;21.062;2023-09-08T10:46:59;0.70;;;0.70;;
39340;SDS011;25059;52.132;21.062;2023-09-08T10:49:43;1.00;;;1.00;;
39340;SDS011;25059;52.132;21.062;2023-09-08T10:52:28;1.42;;;1.42;;
39340;SDS011;25059;52.132;21.062;2023-09-08T10:55:13;1.80;;;1.73;;
39340;SDS011;25059;52.132;21.062;2023-09-08T10:57:58;2.15;;;2.05;;
39340;SDS011;25059;52.132;21.062;2023-09-08T11:00:44;2.30;;;2.20;;
39340;SDS011;25059;52.132;21.062;2023-09-08T11:06:22;2.42;;;2.33;;
39340;SDS011;25059;52.132;21.062;2023-09-08T11:09:07;2.60;;;2.50;;
39340;SDS011;25059;52.132;21.062;2023-09-08T11:11:52;2.60;;;2.50;;
39340;SDS011;25059;52.132;21.062;2023-09-08T11:14:36;2.50;;;2.40;;
39340;SDS011;25059;52.132;21.062;2023-09-08T11:17:25;2.47;;;2.38;;
39340;SDS011;25059;52.132;21.062;2023-09-08T11:20:11;2.20;;;2.10;;
39340;SDS011;25059;52.132;21.062;2023-09-08T11:22:56;1.70;;;1.70;;
39340;SDS011;25059;52.132;21.062;2023-09-08T11:25:41;1.63;;;1.63;;
39340;SDS011;25059;52.132;21.062;2023-09-08T11:28:26;1.85;;;1.75;;
39340;SDS011;25059;52.132;21.062;2023-09-08T11:31:12;1.05;;;1.05;;
39340;SDS011;25059;52.132;21.062;2023-09-08T11:34:00;1.00;;;1.00;;
39340;SDS011;25059;52.132;21.062;2023-09-08T11:36:44;0.70;;;0.70;;
39340;SDS011;25059;52.132;21.062;2023-09-08T11:39:30;0.77;;;0.77;;
39340;SDS011;25059;52.132;21.062;2023-09-08T11:42:15;0.70;;;0.70;;
39340;SDS011;25059;52.132;21.062;2023-09-08T11:44:59;0.77;;;0.77;;
39340;SDS011;25059;52.132;21.062;2023-09-08T11:47:45;0.93;;;0.93;;
39340;SDS011;25059;52.132;21.062;2023-09-08T11:50:29;0.80;;;0.80;;
39340;SDS011;25059;52.132;21.062;2023-09-08T11:53:18;0.90;;;0.90;;
39340;SDS011;25059;52.132;21.062;2023-09-08T11:56:08;1.00;;;1.00;;
39340;SDS011;25059;52.132;21.062;2023-09-08T11:58:55;1.50;;;1.50;;
39340;SDS011;25059;52.132;21.062;2023-09-08T12:01:40;1.60;;;1.60;;
39340;SDS011;25059;52.132;21.062;2023-09-08T12:04:25;1.70;;;1.70;;
39340;SDS011;25059;52.132;21.062;2023-09-08T12:07:12;1.58;;;1.58;;
39340;SDS011;25059;52.132;21.062;2023-09-08T12:10:06;1.60;;;1.60;;
39340;SDS011;25059;52.132;21.062;2023-09-08T12:12:52;1.70;;;1.70;;
39340;SDS011;25059;52.132;21.062;2023-09-08T12:15:40;1.95;;;1.85;;
39340;SDS011;25059;52.132;21.062;2023-09-08T12:18:41;2.30;;;2.20;;
39340;SDS011;25059;52.132;21.062;2023-09-08T12:21:29;2.58;;;2.47;;
39340;SDS011;25059;52.132;21.062;2023-09-08T12:24:16;2.92;;;2.72;;
39340;SDS011;25059;52.132;21.062;2023-09-08T12:27:02;2.65;;;2.55;;
39340;SDS011;25059;52.132;21.062;2023-09-08T12:30:01;2.67;;;2.58;;
39340;SDS011;25059;52.132;21.062;2023-09-08T12:32:48;2.78;;;2.67;;
39340;SDS011;25059;52.132;21.062;2023-09-08T12:35:33;3.50;;;3.30;;
39340;SDS011;25059;52.132;21.062;2023-09-08T12:38:18;2.80;;;2.70;;
39340;SDS011;25059;52.132;21.062;2023-09-08T12:41:03;3.53;;;3.33;;
39340;SDS011;25059;52.132;21.062;2023-09-08T12:43:48;3.10;;;2.90;;
39340;SDS011;25059;52.132;21.062;2023-09-08T12:46:32;3.10;;;2.90;;
39340;SDS011;25059;52.132;21.062;2023-09-08T12:49:20;3.15;;;2.95;;
39340;SDS011;25059;52.132;21.062;2023-09-08T12:52:04;3.08;;;2.88;;
39340;SDS011;25059;52.132;21.062;2023-09-08T12:54:52;3.10;;;2.90;;
39340;SDS011;25059;52.132;21.062;2023-09-08T12:57:37;3.35;;;3.15;;
39340;SDS011;25059;52.132;21.062;2023-09-08T13:00:22;3.67;;;3.47;;
39340;SDS011;25059;52.132;21.062;2023-09-08T13:03:07;3.30;;;3.10;;
39340;SDS011;25059;52.132;21.062;2023-09-08T13:05:52;3.10;;;2.90;;
39340;SDS011;25059;52.132;21.062;2023-09-08T13:08:36;3.10;;;2.90;;
39340;SDS011;25059;52.132;21.062;2023-09-08T13:11:22;2.70;;;2.60;;
39340;SDS011;25059;52.132;21.062;2023-09-08T13:14:07;2.92;;;2.75;;
39340;SDS011;25059;52.132;21.062;2023-09-08T13:16:55;2.42;;;2.33;;
39340;SDS011;25059;52.132;21.062;2023-09-08T13:19:39;2.20;;;2.10;;
39340;SDS011;25059;52.132;21.062;2023-09-08T13:22:25;2.30;;;2.20;;
39340;SDS011;25059;52.132;21.062;2023-09-08T13:25:10;2.30;;;2.20;;
39340;SDS011;25059;52.132;21.062;2023-09-08T13:27:55;2.10;;;2.00;;
39340;SDS011;25059;52.132;21.062;2023-09-08T13:30:40;2.05;;;1.95;;
39340;SDS011;25059;52.132;21.062;2023-09-08T13:33:28;2.15;;;2.05;;
39340;SDS011;25059;52.132;21.062;2023-09-08T13:36:17;2.30;;;2.20;;
39340;SDS011;25059;52.132;21.062;2023-09-08T13:39:02;2.08;;;1.98;;
39340;SDS011;25059;52.132;21.062;2023-09-08T13:41:47;2.58;;;2.47;;
39340;SDS011;25059;52.132;21.062;2023-09-08T13:44:36;2.40;;;2.30;;
39340;SDS011;25059;52.132;21.062;2023-09-08T13:47:21;2.50;;;2.40;;
39340;SDS011;25059;52.132;21.062;2023-09-08T13:50:06;2.58;;;2.47;;
39340;SDS011;25059;52.132;21.062;2023-09-08T13:52:51;2.65;;;2.55;;
39340;SDS011;25059;52.132;21.062;2023-09-08T13:55:39;2.40;;;2.30;;
39340;SDS011;25059;52.132;21.062;2023-09-08T13:58:24;2.58;;;2.47;;
39340;SDS011;25059;52.132;21.062;2023-09-08T14:01:09;2.67;;;2.58;;
39340;SDS011;25059;52.132;21.062;2023-09-08T14:03:54;2.65;;;2.55;;
39340;SDS011;25059;52.132;21.062;2023-09-08T14:06:40;3.00;;;2.80;;
39340;SDS011;25059;52.132;21.062;2023-09-08T14:09:26;2.67;;;2.58;;
39340;SDS011;25059;52.132;21.062;2023-09-08T14:12:11;1.95;;;1.85;;
39340;SDS011;25059;52.132;21.062;2023-09-08T14:14:56;1.60;;;1.60;;
39340;SDS011;25059;52.132;21.062;2023-09-08T14:17:41;1.60;;;1.60;;
39340;SDS011;25059;52.132;21.062;2023-09-08T14:20:25;1.60;;;1.60;;
39340;SDS011;25059;52.132;21.062;2023-09-08T14:23:10;1.50;;;1.50;;
39340;SDS011;25059;52.132;21.062;2023-09-08T14:25:55;1.20;;;1.20;;
39340;SDS011;25059;52.132;21.062;2023-09-08T14:28:40;1.08;;;1.08;;
39340;SDS011;25059;52.132;21.062;2023-09-08T14:31:24;1.00;;;1.00;;
39340;SDS011;25059;52.132;21.062;2023-09-08T14:34:10;1.10;;;1.10;;
39340;SDS011;25059;52.132;21.062;2023-09-08T14:36:55;1.00;;;1.00;;
39340;SDS011;25059;52.132;21.062;2023-09-08T14:39:40;1.10;;;1.10;;
39340;SDS011;25059;52.132;21.062;2023-09-08T14:42:24;1.10;;;1.10;;
39340;SDS011;25059;52.132;21.062;2023-09-08T14:48:47;1.20;;;1.20;;
39340;SDS011;25059;52.132;21.062;2023-09-08T14:51:32;1.10;;;1.10;;
39340;SDS011;25059;52.132;21.062;2023-09-08T14:54:19;1.40;;;1.40;;
39340;SDS011;25059;52.132;21.062;2023-09-08T14:57:04;1.10;;;1.10;;
39340;SDS011;25059;52.132;21.062;2023-09-08T14:59:48;1.30;;;1.30;;
39340;SDS011;25059;52.132;21.062;2023-09-08T15:02:34;1.30;;;1.30;;
39340;SDS011;25059;52.132;21.062;2023-09-08T15:05:19;0.98;;;0.98;;
39340;SDS011;25059;52.132;21.062;2023-09-08T15:08:04;0.88;;;0.88;;
39340;SDS011;25059;52.132;21.062;2023-09-08T15:10:48;1.10;;;1.10;;
39340;SDS011;25059;52.132;21.062;2023-09-08T15:13:33;1.15;;;1.15;;
39340;SDS011;25059;52.132;21.062;2023-09-08T15:16:18;1.00;;;1.00;;
39340;SDS011;25059;52.132;21.062;2023-09-08T15:19:02;1.20;;;1.20;;
39340;SDS011;25059;52.132;21.062;2023-09-08T15:21:47;1.38;;;1.38;;
39340;SDS011;25059;52.132;21.062;2023-09-08T15:24:32;1.20;;;1.20;;
39340;SDS011;25059;52.132;21.062;2023-09-08T15:27:17;1.35;;;1.35;;
39340;SDS011;25059;52.132;21.062;2023-09-08T15:30:03;1.30;;;1.30;;
